Weather observations for the past three days for
Eastern WV Regional Airport/Shepherd Field
Metric (Imperial)
Date Time (edt) Wind (kph) Vis. (km) Weather Sky Cond. Temperature (ºC) Relative Humidity Wind Chill (°C) Heat Index (°C) Pressure Precipitation (cm)
Air Dwpt 6 hour altimeter (cm) sea level (mb) 1 hr 3 hr 6 hr
Max. Min.
03 07:53 Calm 14.48 Thunderstorm in Vicinity FEW010 SCT060 22.8 21.1 22.8 21.1 90% 76.4 1018.2
03 06:53 N 11 12.87 Mostly Cloudy FEW019 SCT030 BKN042 22.2 21.1 94% 76.38 1017.7
03 05:53 N 15 16.09 A Few Clouds FEW012 FEW060 21.7 20.6 94% 76.3 1016.7
03 04:53 N 11 16.09 Mostly Cloudy SCT060 BKN075 21.7 20.6 94% 76.25 1016.2
03 03:53 N 6 16.09 Fair CLR 21.1 20.6 97% 76.23 1015.7
03 02:53 E 7 16.09 Fair CLR 21.7 20.6 94% 76.2 1015.6
03 01:53 SW 6 16.09 Partly Cloudy SCT075 22.2 20.6 25 21.7 91% 76.2 1015.3
03 00:53 Calm 16.09 Partly Cloudy SCT080 SCT100 22.2 20.6 91% 76.25 1016.0
02 23:53 E 6 16.09 Mostly Cloudy BKN065 22.2 20.6 91% 76.3 1016.6
02 22:53 E 6 16.09 Fair CLR 21.7 20 90% 76.28 1016.1
02 21:53 SE 6 16.09 Fair CLR 22.2 20 87% 76.25 1016.0
02 20:53 SW 7 16.09 Fair CLR 23.9 19.4 76% 24 76.25 1016.0
02 19:53 SE 6 16.09 Fair CLR 25 20 28.9 25 74% 26 76.3 1016.8
02 18:53 S 9 16.09 Fair CLR 27.2 20 65% 29 76.3 1016.8
02 17:53 Vrbl 6 16.09 Fair CLR 28.3 20 61% 30 76.28 1016.4
02 16:53 Vrbl 7 16.09 Fair CLR 28.3 20 61% 30 76.3 1016.7
02 15:53 Vrbl 11 16.09 Fair CLR 28.9 21.1 63% 31 76.35 1017.2
02 14:53 Calm 16.09 A Few Clouds FEW110 26.1 19.4 67% 27 76.4 1018.1
02 13:53 E 7 16.09 Fair CLR 26.7 20 31.7 22.8 67% 28 76.35 1017.4
02 12:53 NE 31 G 46 16.09 Overcast FEW037 BKN060 OVC090 28.9 21.7 65% 32 76.45 1018.6
02 11:53 Calm 16.09 Partly Cloudy SCT100 30.6 22.8 63% 35 76.38 1017.7
02 10:53 Calm 16.09 Mostly Cloudy BKN100 28.9 22.8 70% 32 76.38 1017.6
02 09:53 Vrbl 6 16.09 Fair CLR 26.7 22.2 76% 29 76.38 1017.5
02 08:53 SE 6 16.09 Fair CLR 25 22.2 85% 26 76.38 1017.7
02 07:53 Calm 16.09 Fair CLR 22.8 21.1 25 22.2 90% 76.33 1017.1 0.05
02 06:53 Calm 16.09 Partly Cloudy FEW070 SCT110 22.8 21.7 94% 76.33 1017.0 0.05
02 05:53 W 6 16.09 Thunderstorm in Vicinity SCT060 OVC100 23.3 21.1 88% 76.35 1017.4
02 04:53 Calm 16.09 Mostly Cloudy FEW043 BKN095 23.3 21.1 88% 76.35 1017.2
02 03:53 Calm 16.09 Fair CLR 23.9 21.1 84% 24 76.33 1016.7
02 02:53 Calm 16.09 Fair CLR 23.9 20.6 82% 24 76.3 1016.6
02 01:53 Calm 16.09 Fair CLR 23.9 20.6 30 23.9 82% 24 76.3 1016.6
02 00:53 W 7 16.09 Fair CLR 25 20.6 77% 26 76.3 1016.7
01 23:53 Calm 16.09 Fair CLR 25 20 74% 26 76.3 1016.5
01 22:53 W 13 16.09 Fair CLR 26.1 19.4 67% 27 76.2 1015.4
01 21:53 W 13 16.09 Fair CLR 27.8 19.4 60% 29 76.2 1015.4
01 20:53 W 13 16.09 Fair CLR 28.9 20 59% 31 76.15 1014.6
01 19:53 W 24 16.09 Fair CLR 30 19.4 34.4 30 53% 32 76.12 1014.1
01 18:53 W 22 16.09 Fair CLR 31.1 20.6 54% 34 76.12 1014.1
01 17:53 W 22 16.09 Fair CLR 31.7 21.1 53% 35 76.1 1013.9
01 16:53 W 15 16.09 Partly Cloudy SCT070 34.4 20.6 44% 37 76.07 1013.7
01 15:53 W 19 16.09 Mostly Cloudy BKN065 BKN080 34.4 21.1 46% 38 76.1 1013.8
01 14:53 W 15 G 31 16.09 A Few Clouds FEW060 33.9 21.1 47% 37 76.15 1014.6
01 13:53 W 17 16.09 A Few Clouds FEW055 33.3 22.2 33.3 22.8 52% 38 76.2 1015.1
01 12:53 W 17 16.09 Mostly Cloudy BKN110 31.1 22.2 59% 35 76.2 1015.4
01 11:53 W 15 G 28 16.09 Fair CLR 31.1 22.2 59% 35 76.25 1015.9
01 10:53 W 15 16.09 Fair CLR 30.6 22.2 61% 34 76.28 1016.2
01 09:53 S 6 16.09 Fair CLR 26.1 21.7 77% 28 76.3 1016.7
01 08:53 S 6 16.09 Fair CLR 25 21.1 79% 26 76.3 1016.9
01 07:53 Calm 16.09 Fair CLR 22.8 21.1 23.3 21.7 90% 76.33 1017.0
01 06:53 Calm 16.09 Fair CLR 22.2 21.1 94% 76.3 1016.6
01 05:53 Calm 14.48 Fair CLR 22.2 21.7 97% 76.28 1016.5
01 04:53 Calm 16.09 Partly Cloudy SCT110 22.8 21.7 94% 76.28 1016.2
01 03:53 Calm 16.09 A Few Clouds FEW120 22.8 21.7 94% 76.3 1016.7
01 02:53 S 7 16.09 A Few Clouds FEW120 23.3 22.2 94% 76.28 1016.4
01 01:53 Calm 14.48 Overcast OVC120 23.3 22.8 25.6 23.3 97% 76.33 1017.0
01 00:53 S 6 16.09 Partly Cloudy SCT120 23.9 22.8 94% 23 76.35 1017.1
31 23:53 S 6 16.09 Mostly Cloudy BKN120 23.3 22.8 97% 76.35 1017.5
31 22:53 Calm 16.09 Overcast OVC100 23.3 22.8 97% 76.4 1018.0
31 20:53 Calm 16.09 Fair CLR 23.3 22.2 94% 76.35 1017.4
31 19:53 Calm 16.09 Mostly Cloudy BKN110 25.6 22.2 28.3 25.6 82% 27 76.35 1017.3
31 18:53 S 6 16.09 Overcast OVC095 27.2 22.2 74% 30 76.35 1017.4
31 17:53 S 6 16.09 A Few Clouds FEW120 27.8 21.7 69% 30 76.38 1017.7
31 16:53 Calm 16.09 A Few Clouds FEW120 27.8 21.1 67% 30 76.4 1018.0
31 15:53 SW 7 16.09 A Few Clouds FEW120 27.2 21.7 72% 29 76.43 1018.5
31 14:53 S 7 16.09 A Few Clouds FEW037 27.2 21.1 69% 29 76.45 1018.8
31 13:53 Calm 16.09 Partly Cloudy FEW028 SCT042 SCT110 27.2 20.6 27.8 21.7 67% 29 76.48 1019.2
31 12:53 SE 6 16.09 Fair CLR 27.2 20.6 67% 29 76.5 1019.3
31 11:53 Calm 16.09 A Few Clouds FEW110 26.1 20.6 72% 28 76.53 1019.8
31 10:53 Calm 16.09 Partly Cloudy SCT110 26.1 21.1 74% 28 76.56 1020.1
31 09:53 Calm 16.09 Mostly Cloudy BKN100 BKN120 24.4 20.6 79% 25 76.53 1019.9
31 08:53 Calm 16.09 Partly Cloudy SCT110 22.8 20.6 87% 76.56 1020.1
Date Time (edt) Wind (kph) Vis. (km) Weather Sky Cond. Air Dwpt Max. Min. Relative Humidity Wind Chill (°C) Heat Index (°C) altimeter (cm) sea level (mb) 1 hr 3 hr 6 hr
6 hour
Temperature (ºC) Pressure Precipitation (cm)